Time;durP1;ratioP1;P1;durP2;ratioP2;P2;SDS_P1;SDS_P2;PMS_P1;PMS_P2;Temp;Humidity;BMP_temperature;BMP_pressure;BME280_temperature;BME280_humidity;BME280_pressure;Samples;Min_cycle;Max_cycle;Signal;HPM_P1;HPM_P2
2023/09/06 00:01:35;;;;;;;18.17;16.35;;;20.50;99.90;;;;;;5069247;28;20407;-71
2023/09/06 00:04:01;;;;;;;20.60;18.05;;;20.50;99.90;;;;;;5069789;28;20400;-71
2023/09/06 00:06:27;;;;;;;20.63;18.50;;;20.50;99.90;;;;;;5071964;28;20947;-71
2023/09/06 00:08:53;;;;;;;20.80;18.63;;;20.40;99.90;;;;;;5072323;28;20403;-71
2023/09/06 00:11:19;;;;;;;20.80;18.57;;;20.40;99.90;;;;;;5068969;28;20412;-71
2023/09/06 00:13:45;;;;;;;20.75;18.55;;;20.40;99.90;;;;;;5065909;28;20921;-71
2023/09/06 00:16:10;;;;;;;21.50;19.30;;;20.40;99.90;;;;;;5055872;28;20458;-71
2023/09/06 00:18:37;;;;;;;21.92;19.70;;;20.40;99.90;;;;;;5051249;28;20400;-71
2023/09/06 00:21:05;;;;;;;21.33;19.13;;;20.30;99.90;;;;;;5068510;28;20408;-71
2023/09/06 00:23:32;;;;;;;22.37;20.07;;;20.30;99.90;;;;;;5070919;28;20404;-71
2023/09/06 00:25:58;;;;;;;21.65;19.50;;;20.30;99.90;;;;;;5071994;28;20395;-71
2023/09/06 00:28:24;;;;;;;22.23;19.83;;;20.30;99.90;;;;;;5070212;28;20404;-71
2023/09/06 00:30:50;;;;;;;22.40;20.10;;;20.30;1.00;;;;;;5058796;28;20407;-71
2023/09/06 00:33:16;;;;;;;23.02;20.52;;;20.20;1.00;;;;;;5070393;28;20407;-71
2023/09/06 00:35:42;;;;;;;23.00;20.50;;;20.10;1.00;;;;;;5068182;28;20431;-71
2023/09/06 00:38:08;;;;;;;22.33;20.03;;;20.10;1.00;;;;;;5068403;28;20466;-71
2023/09/06 00:40:37;;;;;;;23.55;19.50;;;20.00;1.00;;;;;;5068495;28;20395;-71
2023/09/06 00:43:08;;;;;;;22.92;19.73;;;20.00;1.00;;;;;;5068367;28;20403;-71
2023/09/06 00:45:38;;;;;;;22.13;19.65;;;20.00;1.00;;;;;;5051383;28;20401;-71
2023/09/06 00:48:05;;;;;;;25.45;20.17;;;20.00;1.00;;;;;;5067957;28;20404;-71
2023/09/06 00:50:33;;;;;;;23.40;20.08;;;20.00;1.00;;;;;;5070686;28;20404;-71
2023/09/06 00:52:59;;;;;;;23.27;20.77;;;19.90;1.00;;;;;;5073534;28;20400;-71
2023/09/06 00:55:26;;;;;;;23.02;20.63;;;19.90;1.00;;;;;;5068552;28;20504;-71
2023/09/06 00:57:52;;;;;;;23.77;21.08;;;19.90;1.00;;;;;;5055326;28;20418;-71
2023/09/06 01:00:19;;;;;;;27.50;23.50;;;19.80;1.00;;;;;;5070791;28;20437;-71
2023/09/06 01:02:49;;;;;;;25.40;22.80;;;19.80;1.00;;;;;;5067849;28;20758;-71
2023/09/06 01:05:19;;;;;;;25.70;22.95;;;19.80;1.00;;;;;;5070834;28;20446;-71
2023/09/06 01:07:54;;;;;;;25.45;22.25;;;19.80;1.00;;;;;;5073673;28;20406;-71
2023/09/06 01:10:20;;;;;;;24.77;21.90;;;19.70;1.00;;;;;;5071329;28;20442;-71
2023/09/06 01:12:47;;;;;;;23.77;21.27;;;19.70;1.00;;;;;;5068192;28;20427;-71
2023/09/06 01:15:12;;;;;;;23.87;21.03;;;19.70;1.00;;;;;;5068668;28;21229;-71
2023/09/06 01:17:41;;;;;;;21.60;19.30;;;19.70;1.00;;;;;;5058235;28;20483;-71
2023/09/06 01:20:32;;;;;;;21.60;19.30;;;19.60;1.00;;;;;;5057387;28;20414;-71
2023/09/06 01:23:23;;;;;;;23.80;18.75;;;19.60;1.00;;;;;;5057839;28;20479;-71
2023/09/06 01:25:50;;;;;;;20.75;18.35;;;19.60;1.00;;;;;;5072818;28;20419;-71
2023/09/06 01:28:16;;;;;;;20.85;18.08;;;19.70;1.00;;;;;;5071213;28;20471;-71
2023/09/06 01:30:41;;;;;;;20.42;17.83;;;19.70;1.00;;;;;;5072447;28;20439;-71
2023/09/06 01:33:07;;;;;;;19.93;17.40;;;19.70;1.00;;;;;;5052753;28;20411;-71
2023/09/06 01:35:32;;;;;;;20.10;16.87;;;19.60;1.00;;;;;;5072854;28;20423;-71
2023/09/06 01:37:58;;;;;;;18.80;16.27;;;19.60;1.00;;;;;;5060458;28;20402;-71
2023/09/06 01:40:26;;;;;;;19.33;16.47;;;19.60;1.00;;;;;;5069369;28;20923;-71
2023/09/06 01:42:52;;;;;;;18.85;16.52;;;19.60;1.00;;;;;;5064339;28;20485;-71
2023/09/06 01:45:18;;;;;;;17.97;16.07;;;19.70;1.00;;;;;;5047702;28;20811;-71
2023/09/06 01:47:46;;;;;;;18.55;16.13;;;19.60;1.00;;;;;;5068805;28;20913;-71
2023/09/06 01:50:13;;;;;;;17.67;15.85;;;19.70;1.00;;;;;;5068762;28;20404;-71
2023/09/06 01:52:40;;;;;;;17.92;15.85;;;19.70;1.00;;;;;;5067784;28;20770;-71
2023/09/06 01:55:08;;;;;;;18.40;15.80;;;19.70;1.00;;;;;;5067601;28;20454;-71
2023/09/06 01:57:34;;;;;;;17.43;15.60;;;19.70;1.00;;;;;;5060532;28;20452;-71
2023/09/06 01:59:59;;;;;;;18.60;16.35;;;19.70;1.00;;;;;;5061911;28;20804;-71
2023/09/06 02:02:25;;;;;;;18.03;15.63;;;19.60;1.00;;;;;;5068304;28;20456;-71
2023/09/06 02:04:50;;;;;;;18.97;16.47;;;19.60;1.00;;;;;;5066989;28;20400;-71
2023/09/06 02:07:16;;;;;;;17.67;15.25;;;19.60;1.00;;;;;;5066075;28;20765;-71
2023/09/06 02:09:42;;;;;;;16.30;14.47;;;19.60;1.00;;;;;;5066706;28;20491;-71
2023/09/06 02:12:07;;;;;;;16.50;14.80;;;19.70;1.00;;;;;;5049788;28;20403;-71
2023/09/06 02:14:34;;;;;;;17.80;14.93;;;19.70;1.00;;;;;;5057595;28;20401;-71
2023/09/06 02:17:00;;;;;;;20.15;16.80;;;19.60;1.00;;;;;;5060409;28;20419;-71
2023/09/06 02:19:26;;;;;;;19.10;16.25;;;19.60;1.00;;;;;;5066132;28;20427;-71
2023/09/06 02:21:52;;;;;;;18.73;16.73;;;19.50;1.00;;;;;;5066908;28;20898;-71
2023/09/06 02:24:18;;;;;;;21.30;17.30;;;19.50;1.00;;;;;;5066679;28;20894;-71
2023/09/06 02:26:44;;;;;;;18.25;15.02;;;19.40;1.00;;;;;;5067454;28;20408;-71
2023/09/06 02:29:11;;;;;;;17.63;15.05;;;19.40;1.00;;;;;;5067988;28;20558;-71
2023/09/06 02:31:37;;;;;;;16.70;13.40;;;19.40;1.00;;;;;;5068150;28;20466;-71
2023/09/06 02:34:04;;;;;;;17.20;13.93;;;19.40;1.00;;;;;;5056501;28;20776;-71
2023/09/06 02:36:30;;;;;;;17.17;14.32;;;19.40;1.00;;;;;;5071230;28;20490;-71
2023/09/06 02:38:57;;;;;;;15.80;13.97;;;19.40;1.00;;;;;;5060277;28;20422;-71
2023/09/06 02:41:23;;;;;;;15.30;13.70;;;19.40;1.00;;;;;;5070920;28;20773;-71
2023/09/06 02:43:49;;;;;;;17.38;15.02;;;19.30;1.00;;;;;;5075232;28;20406;-71
2023/09/06 02:46:15;;;;;;;15.70;13.97;;;19.30;1.00;;;;;;5062142;28;20420;-71
2023/09/06 02:48:46;;;;;;;16.50;14.32;;;19.30;1.00;;;;;;5072813;28;20513;-71
2023/09/06 02:51:16;;;;;;;16.00;14.30;;;19.20;1.00;;;;;;5070550;28;20754;-71
2023/09/06 02:53:45;;;;;;;16.25;13.88;;;19.30;1.00;;;;;;5051731;28;20411;-71
2023/09/06 02:56:13;;;;;;;15.80;13.80;;;19.30;1.00;;;;;;5052748;28;20428;-71
2023/09/06 02:58:41;;;;;;;15.02;13.40;;;19.20;1.00;;;;;;5070204;28;20753;-71
2023/09/06 03:01:07;;;;;;;15.23;13.40;;;19.20;1.00;;;;;;5068684;28;20399;-71
2023/09/06 03:03:37;;;;;;;15.00;13.18;;;19.10;1.00;;;;;;5069154;28;20396;-71
2023/09/06 03:06:04;;;;;;;17.42;15.38;;;19.10;1.00;;;;;;5070790;28;20832;-71
2023/09/06 03:08:29;;;;;;;16.77;14.80;;;19.10;1.00;;;;;;5055768;28;20408;-71
2023/09/06 03:10:55;;;;;;;18.50;16.60;;;19.00;1.00;;;;;;5067372;28;20406;-71
2023/09/06 03:13:21;;;;;;;15.37;13.87;;;19.00;1.00;;;;;;5070230;28;20796;-71
2023/09/06 03:15:51;;;;;;;16.00;14.30;;;19.00;1.00;;;;;;5071299;28;20485;-71
2023/09/06 03:18:18;;;;;;;18.97;16.27;;;18.90;1.00;;;;;;5041566;28;20412;-71
2023/09/06 03:20:44;;;;;;;18.38;16.55;;;18.90;1.00;;;;;;5070949;28;20465;-71
2023/09/06 03:23:17;;;;;;;19.60;17.53;;;18.80;1.00;;;;;;5070141;28;20399;-71
2023/09/06 03:25:47;;;;;;;20.52;17.08;;;18.80;1.00;;;;;;5071925;28;20460;-71
2023/09/06 03:28:14;;;;;;;18.73;16.73;;;18.80;1.00;;;;;;5071004;28;20784;-71
2023/09/06 03:30:41;;;;;;;18.05;16.20;;;18.80;1.00;;;;;;5071800;28;20406;-71
2023/09/06 03:33:07;;;;;;;19.30;16.10;;;18.80;1.00;;;;;;5071091;28;20399;-71
2023/09/06 03:35:33;;;;;;;19.42;16.60;;;18.70;1.00;;;;;;5071860;28;20425;-71
2023/09/06 03:37:59;;;;;;;17.30;15.50;;;18.70;1.00;;;;;;5052690;28;20836;-71
2023/09/06 03:40:25;;;;;;;16.25;14.50;;;18.70;1.00;;;;;;5071954;28;20410;-71
2023/09/06 03:42:57;;;;;;;18.52;15.13;;;18.70;1.00;;;;;;5070850;28;20446;-71
2023/09/06 03:45:24;;;;;;;17.52;15.63;;;18.70;1.00;;;;;;5070295;28;20400;-71
2023/09/06 03:47:51;;;;;;;18.08;16.17;;;18.70;1.00;;;;;;5069391;28;20400;-71
2023/09/06 03:50:18;;;;;;;17.40;15.20;;;18.60;1.00;;;;;;5069965;28;20407;-71
2023/09/06 03:52:44;;;;;;;16.63;14.60;;;18.60;1.00;;;;;;5076580;28;20937;-71
2023/09/06 03:55:13;;;;;;;16.57;14.73;;;18.60;1.00;;;;;;5069979;28;20453;-71
2023/09/06 03:57:38;;;;;;;15.73;13.93;;;18.60;1.00;;;;;;5069649;28;20423;-71
2023/09/06 04:02:50;;;;;;;15.10;13.60;;;18.60;1.00;;;;;;5059225;28;20411;-71
2023/09/06 04:05:15;;;;;;;14.10;12.05;;;18.60;1.00;;;;;;5071323;28;20398;-71
2023/09/06 04:07:41;;;;;;;13.70;12.23;;;18.60;1.00;;;;;;5078707;28;20893;-71
2023/09/06 04:10:16;;;;;;;13.55;12.02;;;18.60;1.00;;;;;;5084014;28;20408;-71
2023/09/06 04:12:43;;;;;;;13.13;11.70;;;18.60;1.00;;;;;;5076548;28;20919;-71
2023/09/06 04:15:13;;;;;;;13.00;11.52;;;18.60;1.00;;;;;;5076502;28;20421;-71
2023/09/06 04:17:42;;;;;;;13.93;12.25;;;18.60;1.00;;;;;;5079488;28;20418;-71
2023/09/06 04:20:20;;;;;;;12.90;11.60;;;18.60;1.00;;;;;;5084511;28;20402;-71
2023/09/06 04:22:51;;;;;;;12.60;11.30;;;18.60;1.00;;;;;;5081944;28;20401;-71
2023/09/06 04:25:17;;;;;;;13.25;11.70;;;18.60;1.00;;;;;;5081897;28;20394;-71
2023/09/06 04:27:45;;;;;;;14.38;11.65;;;18.50;1.00;;;;;;5079679;28;20463;-71
2023/09/06 04:30:13;;;;;;;14.30;12.10;;;18.50;1.00;;;;;;5081408;28;20394;-71
2023/09/06 04:32:39;;;;;;;13.52;11.10;;;18.50;1.00;;;;;;5084411;28;20963;-71
2023/09/06 04:35:06;;;;;;;13.00;10.77;;;18.50;1.00;;;;;;5083713;28;20406;-71
2023/09/06 04:37:32;;;;;;;12.18;10.80;;;18.40;1.00;;;;;;5084468;28;20409;-71
2023/09/06 04:39:57;;;;;;;12.77;11.00;;;18.40;1.00;;;;;;5083174;28;20398;-71
2023/09/06 04:42:23;;;;;;;13.70;10.60;;;18.40;1.00;;;;;;5084949;28;20451;-71
2023/09/06 04:44:49;;;;;;;12.68;10.27;;;18.40;1.00;;;;;;5083291;28;20402;-71
2023/09/06 04:47:15;;;;;;;11.35;9.75;;;18.30;1.00;;;;;;5081198;28;20750;-71
2023/09/06 04:49:40;;;;;;;13.75;9.65;;;18.30;1.00;;;;;;5081962;28;20401;-71
2023/09/06 04:52:07;;;;;;;10.32;9.20;;;18.30;1.00;;;;;;5070679;28;20461;-71
2023/09/06 04:54:33;;;;;;;11.18;9.32;;;18.30;1.00;;;;;;5056478;28;20405;-71
2023/09/06 04:56:59;;;;;;;11.20;9.20;;;18.30;1.00;;;;;;5080048;28;20440;-71
2023/09/06 04:59:24;;;;;;;10.73;9.43;;;18.30;1.00;;;;;;5077493;28;20400;-70
2023/09/06 05:01:50;;;;;;;10.43;9.35;;;18.30;1.00;;;;;;5074842;28;20796;-71
2023/09/06 05:04:18;;;;;;;10.97;8.63;;;18.30;1.00;;;;;;5075515;28;20392;-71
2023/09/06 05:06:44;;;;;;;12.48;9.38;;;18.30;1.00;;;;;;5080862;28;21194;-71
2023/09/06 05:09:10;;;;;;;11.75;8.65;;;18.20;1.00;;;;;;5077487;28;20495;-71
2023/09/06 05:11:36;;;;;;;11.40;9.25;;;18.20;1.00;;;;;;5072783;28;20433;-71
2023/09/06 05:14:02;;;;;;;10.48;8.38;;;18.30;1.00;;;;;;5076477;28;20756;-71
2023/09/06 05:16:27;;;;;;;11.32;8.90;;;18.30;1.00;;;;;;5081700;28;20480;-71
2023/09/06 05:18:53;;;;;;;9.53;7.90;;;18.30;1.00;;;;;;5080359;28;20396;-71
2023/09/06 05:21:19;;;;;;;11.23;8.00;;;18.30;1.00;;;;;;5081568;28;20397;-71
2023/09/06 05:23:44;;;;;;;10.17;7.73;;;18.20;1.00;;;;;;5058460;28;20412;-71
2023/09/06 05:26:10;;;;;;;10.52;7.65;;;18.30;1.00;;;;;;5070938;28;20417;-71
2023/09/06 05:28:36;;;;;;;10.80;8.10;;;18.30;1.00;;;;;;5079892;28;20890;-71
2023/09/06 05:31:03;;;;;;;12.83;7.73;;;18.30;1.00;;;;;;5080628;28;20421;-71
2023/09/06 05:33:28;;;;;;;10.02;7.53;;;18.30;1.00;;;;;;5079317;28;20410;-71
2023/09/06 05:35:57;;;;;;;9.80;7.85;;;18.30;1.00;;;;;;5072535;28;20514;-70
2023/09/06 05:38:22;;;;;;;9.52;8.00;;;18.30;1.00;;;;;;5076586;28;20401;-70
2023/09/06 05:40:50;;;;;;;9.33;8.00;;;18.30;1.00;;;;;;5074621;28;20403;-71
2023/09/06 05:43:15;;;;;;;9.15;7.38;;;18.40;1.00;;;;;;5071594;28;20528;-71
2023/09/06 05:45:41;;;;;;;9.83;7.17;;;18.40;1.00;;;;;;5082427;28;20911;-71
2023/09/06 05:48:07;;;;;;;8.33;7.50;;;18.40;1.00;;;;;;5070714;28;20427;-71
2023/09/06 05:50:32;;;;;;;9.18;7.65;;;18.50;1.00;;;;;;5066076;28;20909;-71
2023/09/06 05:52:59;;;;;;;9.10;7.60;;;18.50;1.00;;;;;;5066445;28;20449;-71
2023/09/06 05:55:24;;;;;;;9.00;7.67;;;18.60;1.00;;;;;;5068155;28;20476;-71
2023/09/06 05:57:50;;;;;;;9.63;7.38;;;18.60;1.00;;;;;;5067610;28;20800;-71
2023/09/06 06:00:15;;;;;;;9.10;7.23;;;18.60;1.00;;;;;;5067926;28;20434;-71
2023/09/06 06:02:50;;;;;;;9.05;6.97;;;18.60;1.00;;;;;;5067624;28;20404;-71
2023/09/06 06:05:18;;;;;;;10.25;7.18;;;18.70;1.00;;;;;;5066895;28;20395;-71
2023/09/06 06:07:45;;;;;;;8.45;7.03;;;18.70;1.00;;;;;;5068760;28;20419;-71
2023/09/06 06:10:12;;;;;;;10.20;6.78;;;18.80;1.00;;;;;;5072171;28;20486;-71
2023/09/06 06:12:39;;;;;;;9.43;6.85;;;18.80;1.00;;;;;;5072594;28;20399;-71
2023/09/06 06:15:09;;;;;;;8.00;5.97;;;18.80;1.00;;;;;;5072926;28;20408;-71
2023/09/06 06:17:38;;;;;;;9.50;6.05;;;18.90;1.00;;;;;;5071038;28;20408;-71
2023/09/06 06:20:09;;;;;;;11.37;6.00;;;18.90;1.00;;;;;;5074961;28;20404;-71
2023/09/06 06:22:37;;;;;;;9.70;5.97;;;19.00;1.00;;;;;;5076373;28;20396;-71
2023/09/06 06:25:05;;;;;;;10.80;5.63;;;19.00;1.00;;;;;;5067044;28;20977;-71
2023/09/06 06:27:31;;;;;;;8.70;5.88;;;19.10;1.00;;;;;;5073901;28;20402;-71
2023/09/06 06:29:56;;;;;;;9.73;6.20;;;19.10;1.00;;;;;;5073998;28;20465;-71
2023/09/06 06:32:22;;;;;;;9.50;6.20;;;19.20;1.00;;;;;;5076902;28;20413;-71
2023/09/06 06:34:50;;;;;;;10.13;5.60;;;19.20;1.00;;;;;;5068415;28;20416;-71
2023/09/06 06:37:16;;;;;;;7.22;5.65;;;19.30;1.00;;;;;;5071454;28;20406;-71
2023/09/06 06:39:42;;;;;;;8.90;5.80;;;19.40;1.00;;;;;;5070536;28;20416;-71
2023/09/06 06:42:08;;;;;;;8.45;5.78;;;19.40;1.00;;;;;;5078403;28;20394;-71
2023/09/06 06:44:33;;;;;;;8.37;5.77;;;19.50;1.00;;;;;;5056544;28;20929;-71
2023/09/06 06:47:00;;;;;;;7.60;6.00;;;19.50;1.00;;;;;;5077415;28;20408;-71
2023/09/06 06:49:25;;;;;;;7.65;5.53;;;19.50;1.00;;;;;;5070929;28;20438;-71
2023/09/06 06:51:51;;;;;;;7.53;5.70;;;19.60;1.00;;;;;;5069666;28;20424;-71
2023/09/06 06:54:17;;;;;;;7.93;5.60;;;19.70;1.00;;;;;;5052291;28;20404;-71
2023/09/06 06:56:43;;;;;;;7.65;5.38;;;19.70;1.00;;;;;;5058160;28;20427;-71
2023/09/06 06:59:09;;;;;;;7.83;5.50;;;19.80;1.00;;;;;;5070432;28;20813;-71
2023/09/06 07:01:36;;;;;;;9.03;5.63;;;19.80;1.00;;;;;;5071182;28;20402;-71
2023/09/06 07:04:04;;;;;;;7.50;5.68;;;19.90;1.00;;;;;;5070662;28;20424;-72
2023/09/06 07:06:30;;;;;;;7.10;6.00;;;19.90;1.00;;;;;;5068453;28;20786;-72
2023/09/06 07:08:56;;;;;;;7.73;6.23;;;20.00;1.00;;;;;;5062107;28;20404;-72
2023/09/06 07:11:22;;;;;;;8.38;5.78;;;20.00;1.00;;;;;;5072931;28;20776;-72
2023/09/06 07:13:49;;;;;;;6.97;5.68;;;20.10;1.00;;;;;;5063240;28;20945;-71
2023/09/06 07:16:20;;;;;;;7.30;5.72;;;20.20;1.00;;;;;;5071208;28;20438;-72
2023/09/06 07:18:46;;;;;;;7.60;5.70;;;20.20;1.00;;;;;;5071652;28;20427;-72
2023/09/06 07:21:12;;;;;;;6.85;5.55;;;20.30;1.00;;;;;;5071565;28;20405;-72
2023/09/06 07:23:38;;;;;;;9.65;5.78;;;20.30;1.00;;;;;;5072242;28;20396;-72
2023/09/06 07:26:04;;;;;;;6.47;5.50;;;20.40;1.00;;;;;;5073485;28;20491;-72
2023/09/06 07:28:42;;;;;;;7.10;5.20;;;20.50;1.00;;;;;;5071301;28;20403;-72
2023/09/06 07:31:08;;;;;;;7.00;5.43;;;20.60;1.00;;;;;;5059254;28;20457;-72
2023/09/06 07:33:34;;;;;;;7.50;5.35;;;20.70;1.00;;;;;;5071043;28;20805;-72
2023/09/06 07:36:00;;;;;;;9.50;5.07;;;20.70;1.00;;;;;;5070783;28;20431;-72
2023/09/06 07:38:25;;;;;;;8.20;4.85;;;20.80;1.00;;;;;;5071606;28;20444;-72
2023/09/06 07:41:06;;;;;;;8.45;4.65;;;20.90;1.00;;;;;;5072690;28;20410;-72
2023/09/06 07:43:33;;;;;;;6.85;4.15;;;20.90;1.00;;;;;;5072698;28;20441;-72
2023/09/06 07:46:00;;;;;;;7.43;4.50;;;21.00;1.00;;;;;;5071403;28;20910;-72
2023/09/06 07:48:28;;;;;;;5.57;3.83;;;21.10;1.00;;;;;;5073017;28;20922;-72
2023/09/06 07:50:54;;;;;;;6.55;3.78;;;21.20;1.00;;;;;;5058756;28;20407;-72
2023/09/06 07:53:20;;;;;;;6.03;4.32;;;21.30;1.00;;;;;;5069450;28;20396;-71
2023/09/06 07:55:47;;;;;;;7.28;4.28;;;21.40;1.00;;;;;;5069477;28;20420;-72
2023/09/06 07:58:13;;;;;;;6.03;4.47;;;21.50;1.00;;;;;;5068353;28;20486;-72
2023/09/06 08:00:42;;;;;;;9.10;4.53;;;21.60;1.00;;;;;;5058287;28;20455;-72
2023/09/06 08:03:08;;;;;;;5.40;4.25;;;21.60;1.00;;;;;;5069727;28;20406;-72
2023/09/06 08:05:37;;;;;;;7.80;4.85;;;21.70;1.00;;;;;;5069397;28;20400;-72
2023/09/06 08:08:05;;;;;;;7.03;4.90;;;21.90;1.00;;;;;;5068538;28;20403;-72
2023/09/06 08:10:32;;;;;;;8.50;5.07;;;21.90;1.00;;;;;;5069207;28;20435;-72
2023/09/06 08:12:58;;;;;;;6.75;4.95;;;22.00;1.00;;;;;;5071292;28;20437;-72
2023/09/06 08:15:24;;;;;;;8.90;5.32;;;22.20;1.00;;;;;;5060637;28;20460;-72
2023/09/06 08:17:50;;;;;;;7.67;5.40;;;22.20;1.00;;;;;;5066273;28;20406;-72
2023/09/06 08:20:16;;;;;;;7.80;5.03;;;22.30;1.00;;;;;;5069088;28;20395;-72
2023/09/06 08:22:44;;;;;;;8.55;4.65;;;22.40;99.90;;;;;;5069201;28;20403;-72
2023/09/06 08:25:12;;;;;;;9.00;5.60;;;22.50;99.90;;;;;;5069178;28;20431;-72
2023/09/06 08:27:37;;;;;;;6.50;4.95;;;22.60;99.90;;;;;;5069287;28;20790;-72
2023/09/06 08:30:05;;;;;;;6.30;4.60;;;22.70;99.90;;;;;;5068522;28;20426;-72
2023/09/06 08:32:30;;;;;;;6.25;4.20;;;22.80;99.90;;;;;;5068654;28;20527;-72
2023/09/06 08:34:58;;;;;;;6.45;4.53;;;22.80;99.90;;;;;;5041508;28;20508;-71
2023/09/06 08:37:23;;;;;;;7.38;5.10;;;23.00;99.90;;;;;;5067102;28;20448;-72
2023/09/06 08:39:49;;;;;;;6.23;4.10;;;23.10;99.90;;;;;;5069434;28;20399;-72
2023/09/06 08:42:17;;;;;;;4.70;4.15;;;23.20;99.90;;;;;;5069366;28;20492;-72
2023/09/06 08:44:48;;;;;;;5.57;3.88;;;23.30;99.90;;;;;;5069152;28;20413;-72
2023/09/06 08:47:17;;;;;;;4.95;3.80;;;23.40;99.90;;;;;;5057238;28;20504;-72
2023/09/06 08:49:46;;;;;;;5.23;3.73;;;23.50;99.90;;;;;;5068304;28;20465;-72
2023/09/06 08:52:14;;;;;;;7.85;3.70;;;23.60;88.40;;;;;;5068474;28;20774;-72
2023/09/06 08:54:44;;;;;;;5.05;2.92;;;23.70;1.00;;;;;;5068368;28;20475;-72
2023/09/06 08:57:13;;;;;;;5.82;2.92;;;23.80;99.90;;;;;;5068636;28;20509;-72
2023/09/06 08:59:40;;;;;;;4.05;3.17;;;23.90;99.90;;;;;;5069869;28;20422;-72
2023/09/06 09:02:10;;;;;;;5.57;2.85;;;24.00;70.40;;;;;;5055142;28;20411;-72
2023/09/06 09:04:41;;;;;;;4.43;2.90;;;24.10;96.10;;;;;;5069114;28;20796;-72
2023/09/06 09:07:11;;;;;;;3.67;2.72;;;24.30;99.90;;;;;;5067937;28;20411;-72
2023/09/06 09:10:01;;;;;;;3.35;2.50;;;24.40;1.00;;;;;;5068590;28;20461;-72
2023/09/06 09:12:28;;;;;;;4.20;2.50;;;24.50;99.90;;;;;;5068052;28;20470;-72
2023/09/06 09:14:56;;;;;;;4.85;2.50;;;24.60;1.00;;;;;;5068251;28;20407;-72
2023/09/06 09:17:23;;;;;;;4.45;2.50;;;24.80;1.00;;;;;;5050689;28;20424;-72
2023/09/06 09:19:58;;;;;;;3.42;1.90;;;25.10;1.00;;;;;;5070005;28;20407;-73
2023/09/06 09:22:30;;;;;;;3.28;2.17;;;26.00;99.90;;;;;;5069510;28;20414;-72
2023/09/06 09:25:00;;;;;;;3.70;1.70;;;27.10;1.00;;;;;;5068615;28;20450;-72
2023/09/06 09:27:27;;;;;;;5.15;1.90;;;28.00;1.00;;;;;;5069817;28;20411;-73
2023/09/06 09:29:54;;;;;;;3.47;1.48;;;28.80;99.90;;;;;;5068907;28;20407;-73
2023/09/06 09:32:20;;;;;;;3.23;1.27;;;29.60;1.00;;;;;;5069566;28;20410;-73
2023/09/06 09:34:45;;;;;;;;;;;30.10;99.90;;;;;;5070197;28;20053;-71
2023/09/06 09:37:12;;;;;;;;;;;30.60;99.90;;;;;;5070043;28;20018;-72
2023/09/06 09:39:37;;;;;;;;;;;31.00;99.90;;;;;;5069725;28;19931;-72
2023/09/06 09:42:04;;;;;;;;;;;31.30;99.90;;;;;;5069472;28;19921;-72
2023/09/06 09:44:29;;;;;;;;;;;31.90;99.90;;;;;;5073678;28;19924;-72
2023/09/06 09:46:58;;;;;;;;;;;32.20;99.90;;;;;;5055061;28;19920;-71
2023/09/06 09:49:24;;;;;;;;;;;32.40;99.90;;;;;;5073660;28;19943;-72
2023/09/06 09:51:50;;;;;;;;;;;32.70;99.90;;;;;;5073266;28;19924;-72
2023/09/06 09:54:16;;;;;;;;;;;32.90;99.90;;;;;;5074237;28;20084;-72
2023/09/06 09:56:45;;;;;;;;;;;33.10;99.90;;;;;;5061766;28;19939;-72
2023/09/06 09:59:10;;;;;;;;;;;33.30;99.90;;;;;;5074038;28;19932;-72
2023/09/06 10:01:38;;;;;;;;;;;33.50;99.90;;;;;;5073433;28;19928;-72
2023/09/06 10:04:05;;;;;;;;;;;33.60;99.90;;;;;;5073494;28;19920;-72
2023/09/06 10:06:32;;;;;;;;;;;33.80;99.90;;;;;;5054774;28;19924;-72
2023/09/06 10:08:59;;;;;;;2.55;1.10;;;34.10;99.90;;;;;;5064441;28;19931;-72
2023/09/06 10:11:26;;;;;;;2.58;0.90;;;34.40;99.90;;;;;;5071031;28;20884;-72
2023/09/06 10:13:52;;;;;;;;;;;34.60;99.90;;;;;;5074449;28;20044;-72
2023/09/06 10:16:20;;;;;;;;;;;34.80;99.90;;;;;;5075682;28;19920;-72
2023/09/06 10:18:47;;;;;;;;;;;35.10;99.90;;;;;;5074622;28;19928;-72
2023/09/06 10:21:13;;;;;;;;;;;35.20;99.90;;;;;;5074497;28;19927;-72
2023/09/06 10:23:42;;;;;;;;;;;35.30;99.90;;;;;;5074992;28;19942;-72
2023/09/06 10:26:07;;;;;;;;;;;35.40;99.90;;;;;;5077158;28;20010;-72
2023/09/06 10:28:34;;;;;;;;;;;35.40;99.90;;;;;;5075029;28;20011;-72
2023/09/06 10:31:07;;;;;;;;;;;35.30;99.90;;;;;;5077896;28;20296;-72
2023/09/06 10:33:35;;;;;;;;;;;35.40;99.90;;;;;;5075271;28;19928;-72
2023/09/06 10:36:12;;;;;;;2.75;0.90;;;35.50;99.90;;;;;;5076507;28;19920;-72
2023/09/06 10:39:14;;;;;;;1.97;0.90;;;35.70;99.90;;;;;;5073699;28;20514;-72
2023/09/06 10:42:08;;;;;;;2.92;0.70;;;35.80;99.90;;;;;;5054916;28;20048;-72
2023/09/06 10:44:55;;;;;;;2.65;1.00;;;35.90;99.90;;;;;;5072614;28;20465;-72
2023/09/06 10:47:30;;;;;;;2.33;0.82;;;35.90;99.90;;;;;;5076588;28;20753;-72
2023/09/06 10:50:15;;;;;;;;;;;35.90;99.90;;;;;;5075829;28;20046;-72
2023/09/06 10:52:46;;;;;;;2.67;1.00;;;35.90;99.90;;;;;;5062094;28;20319;-72
2023/09/06 10:55:18;;;;;;;2.70;0.93;;;36.10;99.90;;;;;;5061697;28;20391;-72
2023/09/06 10:57:57;;;;;;;3.28;1.30;;;36.40;99.90;;;;;;5045054;28;20424;-72
2023/09/06 11:00:29;;;;;;;1.98;1.08;;;36.50;99.90;;;;;;5069812;28;20040;-72
2023/09/06 11:03:08;;;;;;;;;;;36.70;99.90;;;;;;5054615;28;20044;-72
2023/09/06 11:05:42;;;;;;;4.70;1.00;;;37.00;99.90;;;;;;5072024;28;19932;-72
2023/09/06 11:08:09;;;;;;;2.73;1.00;;;37.40;99.90;;;;;;5070910;28;20407;-72
2023/09/06 11:10:36;;;;;;;3.03;1.20;;;37.50;99.90;;;;;;5067736;28;20404;-72
2023/09/06 11:13:14;;;;;;;2.50;1.15;;;37.40;99.90;;;;;;5071269;28;20087;-72
2023/09/06 11:15:41;;;;;;;3.25;1.10;;;37.50;99.90;;;;;;5052551;28;20052;-72
2023/09/06 11:18:08;;;;;;;3.63;0.93;;;37.60;99.90;;;;;;5071052;28;20242;-72
2023/09/06 11:20:35;;;;;;;4.32;1.20;;;37.50;99.90;;;;;;5055156;28;20091;-72
2023/09/06 11:23:03;;;;;;;1.95;0.80;;;37.50;99.90;;;;;;5068272;28;20049;-72
2023/09/06 11:25:29;;;;;;;;;;;37.50;99.90;;;;;;5071349;28;20131;-72
2023/09/06 11:27:59;;;;;;;3.17;0.98;;;37.60;99.90;;;;;;5070349;28;19920;-72
2023/09/06 11:30:26;;;;;;;4.07;1.10;;;37.60;99.90;;;;;;5057974;28;20412;-72
2023/09/06 11:32:56;;;;;;;3.38;0.80;;;37.40;99.90;;;;;;5068752;28;20480;-72
2023/09/06 11:35:56;;;;;;;2.15;1.08;;;37.30;99.90;;;;;;5070440;28;20056;-72
2023/09/06 11:38:28;;;;;;;2.28;0.80;;;37.30;99.90;;;;;;5061593;28;20746;-72
2023/09/06 11:40:56;;;;;;;1.55;0.80;;;37.40;99.90;;;;;;5069671;28;20051;-72
2023/09/06 11:43:24;;;;;;;2.35;0.90;;;37.30;99.90;;;;;;5069580;28;20041;-72
2023/09/06 11:45:54;;;;;;;2.85;0.75;;;37.30;99.90;;;;;;5065390;28;20518;-72
2023/09/06 11:48:30;;;;;;;1.63;0.90;;;37.40;99.90;;;;;;5062360;28;20815;-72
2023/09/06 11:51:08;;;;;;;2.38;0.80;;;37.40;99.90;;;;;;5051767;28;20399;-72
2023/09/06 11:53:37;;;;;;;3.10;0.75;;;37.50;99.90;;;;;;5068247;28;20774;-72
2023/09/06 11:56:07;;;;;;;4.05;1.00;;;37.50;99.90;;;;;;5068956;28;20865;-72
2023/09/06 11:58:45;;;;;;;3.35;1.00;;;37.50;99.90;;;;;;5068524;28;20961;-72
2023/09/06 12:01:12;;;;;;;3.70;0.80;;;37.80;99.90;;;;;;5055456;28;20903;-72
2023/09/06 12:03:44;;;;;;;3.20;0.80;;;38.10;99.90;;;;;;5061723;28;20404;-72
2023/09/06 12:06:10;;;;;;;3.65;0.90;;;38.20;99.90;;;;;;5043721;28;20411;-72
2023/09/06 12:08:38;;;;;;;2.90;0.70;;;38.30;99.90;;;;;;5068287;28;20400;-72
2023/09/06 12:11:11;;;;;;;2.63;0.95;;;38.40;99.90;;;;;;5070779;28;20423;-72
2023/09/06 12:13:38;;;;;;;3.03;0.80;;;38.60;99.90;;;;;;5069041;28;20400;-72
2023/09/06 12:16:04;;;;;;;;;;;38.70;99.90;;;;;;5051676;28;20178;-72
2023/09/06 12:18:30;;;;;;;;;;;38.50;99.90;;;;;;5070538;28;20359;-72
2023/09/06 12:20:56;;;;;;;2.22;0.60;;;38.50;99.90;;;;;;5068430;28;19970;-72
2023/09/06 12:23:25;;;;;;;2.22;0.80;;;38.70;99.90;;;;;;5051051;28;20135;-72
2023/09/06 12:25:51;;;;;;;;;;;38.60;99.90;;;;;;5050945;28;20127;-72
2023/09/06 12:28:17;;;;;;;;;;;38.50;99.90;;;;;;5068121;28;20008;-72
2023/09/06 12:30:42;;;;;;;;;;;38.40;99.90;;;;;;5068751;28;19970;-72
2023/09/06 12:33:08;;;;;;;4.15;0.60;;;38.60;99.90;;;;;;5068864;28;19927;-72
2023/09/06 12:35:38;;;;;;;1.70;0.50;;;38.70;99.90;;;;;;5062209;28;20053;-72
2023/09/06 12:38:06;;;;;;;3.85;0.70;;;38.70;99.90;;;;;;5064810;28;20055;-72
2023/09/06 12:40:32;;;;;;;2.60;0.70;;;38.90;99.90;;;;;;5051292;28;20080;-72
2023/09/06 12:42:58;;;;;;;3.53;0.70;;;38.90;99.90;;;;;;5069199;28;20048;-72
2023/09/06 12:45:30;;;;;;;4.00;0.70;;;38.80;99.90;;;;;;5068503;28;20384;-72
2023/09/06 12:47:59;;;;;;;;;;;38.90;99.90;;;;;;5070504;28;20036;-72
2023/09/06 12:50:26;;;;;;;2.22;0.70;;;39.10;99.90;;;;;;5069231;28;19966;-72
2023/09/06 12:52:53;;;;;;;2.47;0.60;;;39.10;99.90;;;;;;5070554;28;20040;-72
2023/09/06 12:55:18;;;;;;;4.30;1.00;;;39.20;99.90;;;;;;5067983;28;20778;-72
2023/09/06 12:57:45;;;;;;;1.70;0.70;;;39.10;99.90;;;;;;5067839;28;20491;-72
2023/09/06 13:00:12;;;;;;;3.35;0.70;;;39.20;99.90;;;;;;5068420;28;20469;-72